sensor_id;sensor_type;location;lat;lon;timestamp;pressure;altitude;pressure_sealevel;temperature;humidity
68145;BME280;55400;51.824;-0.196;2022-09-03T00:02:32;99924.16;;;19.28;62.99
68145;BME280;55400;51.824;-0.196;2022-09-03T00:07:35;99924.34;;;19.16;63.38
68145;BME280;55400;51.824;-0.196;2022-09-03T00:10:09;99917.59;;;19.12;63.34
68145;BME280;55400;51.824;-0.196;2022-09-03T00:12:41;99928.56;;;19.09;63.80
68145;BME280;55400;51.824;-0.196;2022-09-03T00:17:37;99918.16;;;19.06;63.55
68145;BME280;55400;51.824;-0.196;2022-09-03T00:20:25;99907.75;;;19.03;63.59
68145;BME280;55400;51.824;-0.196;2022-09-03T00:22:54;99910.56;;;19.01;63.72
68145;BME280;55400;51.824;-0.196;2022-09-03T00:25:24;99898.38;;;18.99;63.86
68145;BME280;55400;51.824;-0.196;2022-09-03T00:27:53;99907.34;;;18.98;63.65
68145;BME280;55400;51.824;-0.196;2022-09-03T00:30:22;99907.50;;;18.96;63.91
68145;BME280;55400;51.824;-0.196;2022-09-03T00:32:56;99907.66;;;18.95;63.83
68145;BME280;55400;51.824;-0.196;2022-09-03T00:35:38;99898.22;;;18.91;63.53
68145;BME280;55400;51.824;-0.196;2022-09-03T00:38:07;99911.03;;;18.87;63.82
68145;BME280;55400;51.824;-0.196;2022-09-03T00:45:52;99898.34;;;18.79;63.87
68145;BME280;55400;51.824;-0.196;2022-09-03T01:12:11;99875.75;;;18.44;64.06
68145;BME280;55400;51.824;-0.196;2022-09-03T01:27:20;99866.03;;;18.24;64.09
68145;BME280;55400;51.824;-0.196;2022-09-03T01:29:57;99863.66;;;18.21;64.62
68145;BME280;55400;51.824;-0.196;2022-09-03T01:32:35;99863.94;;;18.17;64.33
68145;BME280;55400;51.824;-0.196;2022-09-03T01:35:20;99862.38;;;18.15;64.84
68145;BME280;55400;51.824;-0.196;2022-09-03T01:40:43;99862.94;;;18.09;64.56
68145;BME280;55400;51.824;-0.196;2022-09-03T01:45:55;99874.16;;;18.03;64.65
68145;BME280;55400;51.824;-0.196;2022-09-03T01:59:25;99857.56;;;17.89;64.69
68145;BME280;55400;51.824;-0.196;2022-09-03T02:01:33;99856.00;;;17.87;64.75
68145;BME280;55400;51.824;-0.196;2022-09-03T02:04:01;99859.78;;;17.84;64.99
68145;BME280;55400;51.824;-0.196;2022-09-03T02:06:39;99862.72;;;17.81;64.80
68145;BME280;55400;51.824;-0.196;2022-09-03T02:09:06;99862.84;;;17.79;64.76
68145;BME280;55400;51.824;-0.196;2022-09-03T02:11:32;99863.84;;;17.78;64.90
68145;BME280;55400;51.824;-0.196;2022-09-03T02:13:59;99867.63;;;17.76;65.10
68145;BME280;55400;51.824;-0.196;2022-09-03T02:16:29;99867.75;;;17.74;65.27
68145;BME280;55400;51.824;-0.196;2022-09-03T02:18:57;99867.19;;;17.71;65.04
68145;BME280;55400;51.824;-0.196;2022-09-03T02:21:25;99870.97;;;17.68;65.30
68145;BME280;55400;51.824;-0.196;2022-09-03T02:23:53;99877.41;;;17.66;65.56
68145;BME280;55400;51.824;-0.196;2022-09-03T02:26:21;99881.06;;;17.65;65.40
68145;BME280;55400;51.824;-0.196;2022-09-03T02:28:49;99879.50;;;17.62;65.13
68145;BME280;55400;51.824;-0.196;2022-09-03T02:31:16;99886.94;;;17.58;65.39
68145;BME280;55400;51.824;-0.196;2022-09-03T02:33:43;99886.19;;;17.56;65.74
68145;BME280;55400;51.824;-0.196;2022-09-03T02:36:12;99882.00;;;17.54;65.33
68145;BME280;55400;51.824;-0.196;2022-09-03T02:38:43;99882.13;;;17.52;65.57
68145;BME280;55400;51.824;-0.196;2022-09-03T02:41:10;99882.25;;;17.51;65.19
68145;BME280;55400;51.824;-0.196;2022-09-03T02:46:07;99883.50;;;17.47;65.91
68145;BME280;55400;51.824;-0.196;2022-09-03T02:48:35;99883.50;;;17.47;65.89
68145;BME280;55400;51.824;-0.196;2022-09-03T02:51:02;99891.63;;;17.45;65.73
68145;BME280;55400;51.824;-0.196;2022-09-03T02:53:39;99895.25;;;17.44;65.96
68145;BME280;55400;51.824;-0.196;2022-09-03T02:56:06;99890.06;;;17.42;65.40
68145;BME280;55400;51.824;-0.196;2022-09-03T02:58:33;99892.72;;;17.42;65.77
68145;BME280;55400;51.824;-0.196;2022-09-03T03:01:00;99901.72;;;17.41;65.88
68145;BME280;55400;51.824;-0.196;2022-09-03T03:03:27;99897.50;;;17.39;65.89
68145;BME280;55400;51.824;-0.196;2022-09-03T03:05:54;99895.69;;;17.39;65.94
68145;BME280;55400;51.824;-0.196;2022-09-03T03:08:23;99891.19;;;17.40;65.92
68145;BME280;55400;51.824;-0.196;2022-09-03T03:10:51;99894.69;;;17.40;65.96
68145;BME280;55400;51.824;-0.196;2022-09-03T03:13:18;99883.91;;;17.42;65.95
68145;BME280;55400;51.824;-0.196;2022-09-03T03:15:45;99881.09;;;17.43;66.01
68145;BME280;55400;51.824;-0.196;2022-09-03T03:18:13;99886.16;;;17.47;65.75
68145;BME280;55400;51.824;-0.196;2022-09-03T03:20:40;99893.06;;;17.49;65.97
68145;BME280;55400;51.824;-0.196;2022-09-03T03:23:07;99889.53;;;17.49;65.41
68145;BME280;55400;51.824;-0.196;2022-09-03T03:25:35;99885.19;;;17.48;65.58
68145;BME280;55400;51.824;-0.196;2022-09-03T03:28:01;99887.13;;;17.45;65.65
68145;BME280;55400;51.824;-0.196;2022-09-03T03:30:29;99892.72;;;17.42;65.59
68145;BME280;55400;51.824;-0.196;2022-09-03T03:32:56;99877.03;;;17.39;65.53
68145;BME280;55400;51.824;-0.196;2022-09-03T03:35:23;99881.91;;;17.34;65.69
68145;BME280;55400;51.824;-0.196;2022-09-03T03:37:49;99878.53;;;17.32;65.44
68145;BME280;55400;51.824;-0.196;2022-09-03T03:40:16;99872.63;;;17.29;65.73
68145;BME280;55400;51.824;-0.196;2022-09-03T03:42:43;99878.22;;;17.25;65.80
68145;BME280;55400;51.824;-0.196;2022-09-03T03:45:09;99870.25;;;17.25;65.95
68145;BME280;55400;51.824;-0.196;2022-09-03T03:47:36;99865.88;;;17.24;65.78
68145;BME280;55400;51.824;-0.196;2022-09-03T03:50:03;99866.84;;;17.23;66.05
68145;BME280;55400;51.824;-0.196;2022-09-03T03:52:30;99860.53;;;17.24;66.18
68145;BME280;55400;51.824;-0.196;2022-09-03T03:54:56;99863.91;;;17.26;65.96
68145;BME280;55400;51.824;-0.196;2022-09-03T03:57:23;99859.44;;;17.27;65.84
68145;BME280;55400;51.824;-0.196;2022-09-03T03:59:49;99867.56;;;17.25;65.73
68145;BME280;55400;51.824;-0.196;2022-09-03T04:02:16;99864.03;;;17.25;65.94
68145;BME280;55400;51.824;-0.196;2022-09-03T04:04:43;99867.72;;;17.24;66.02
68145;BME280;55400;51.824;-0.196;2022-09-03T04:07:10;99860.94;;;17.20;65.58
68145;BME280;55400;51.824;-0.196;2022-09-03T04:09:36;99868.38;;;17.16;65.60
68145;BME280;55400;51.824;-0.196;2022-09-03T04:12:04;99861.59;;;17.12;66.11
68145;BME280;55400;51.824;-0.196;2022-09-03T04:14:34;99849.25;;;17.11;65.74
68145;BME280;55400;51.824;-0.196;2022-09-03T04:17:00;99854.72;;;17.09;66.20
68145;BME280;55400;51.824;-0.196;2022-09-03T04:19:28;99855.84;;;17.07;65.88
68145;BME280;55400;51.824;-0.196;2022-09-03T04:21:55;99855.97;;;17.05;65.96
68145;BME280;55400;51.824;-0.196;2022-09-03T04:24:22;99855.25;;;17.03;65.83
68145;BME280;55400;51.824;-0.196;2022-09-03T04:26:49;99858.19;;;17.00;66.33
68145;BME280;55400;51.824;-0.196;2022-09-03T04:29:15;99861.81;;;16.99;66.24
68145;BME280;55400;51.824;-0.196;2022-09-03T04:31:43;99865.31;;;17.00;66.10
68145;BME280;55400;51.824;-0.196;2022-09-03T04:34:30;99854.81;;;16.98;66.29
68145;BME280;55400;51.824;-0.196;2022-09-03T04:36:56;99850.59;;;16.96;65.71
68145;BME280;55400;51.824;-0.196;2022-09-03T04:39:24;99856.06;;;16.94;66.29
68145;BME280;55400;51.824;-0.196;2022-09-03T04:41:51;99848.06;;;16.94;66.32
68145;BME280;55400;51.824;-0.196;2022-09-03T04:44:18;99851.56;;;16.95;66.46
68145;BME280;55400;51.824;-0.196;2022-09-03T04:46:44;99842.47;;;16.97;65.89
68145;BME280;55400;51.824;-0.196;2022-09-03T04:49:13;99848.50;;;16.99;65.92
68145;BME280;55400;51.824;-0.196;2022-09-03T04:51:40;99838.69;;;17.00;66.12
68145;BME280;55400;51.824;-0.196;2022-09-03T04:54:07;99835.06;;;17.01;65.83
68145;BME280;55400;51.824;-0.196;2022-09-03T04:56:35;99836.88;;;17.00;66.23
68145;BME280;55400;51.824;-0.196;2022-09-03T04:59:04;99831.56;;;17.00;66.11
68145;BME280;55400;51.824;-0.196;2022-09-03T05:01:31;99837.84;;;16.99;66.18
68145;BME280;55400;51.824;-0.196;2022-09-03T05:03:59;99843.19;;;16.99;65.92
68145;BME280;55400;51.824;-0.196;2022-09-03T05:06:26;99847.94;;;16.96;66.03
68145;BME280;55400;51.824;-0.196;2022-09-03T05:08:53;99846.38;;;16.93;66.00
68145;BME280;55400;51.824;-0.196;2022-09-03T05:11:21;99847.59;;;16.89;66.38
68145;BME280;55400;51.824;-0.196;2022-09-03T05:13:51;99854.03;;;16.86;66.42
68145;BME280;55400;51.824;-0.196;2022-09-03T05:16:19;99862.97;;;16.85;66.64
68145;BME280;55400;51.824;-0.196;2022-09-03T05:18:46;99856.94;;;16.83;66.19
68145;BME280;55400;51.824;-0.196;2022-09-03T05:21:14;99847.13;;;16.84;66.25
68145;BME280;55400;51.824;-0.196;2022-09-03T05:23:41;99858.72;;;16.83;66.26
68145;BME280;55400;51.824;-0.196;2022-09-03T05:26:09;99856.94;;;16.83;66.63
68145;BME280;55400;51.824;-0.196;2022-09-03T05:28:37;99856.94;;;16.83;66.35
68145;BME280;55400;51.824;-0.196;2022-09-03T05:31:05;99847.13;;;16.84;66.57
68145;BME280;55400;51.824;-0.196;2022-09-03T05:33:33;99851.47;;;16.85;66.43
68145;BME280;55400;51.824;-0.196;2022-09-03T05:36:01;99854.97;;;16.85;66.85
68145;BME280;55400;51.824;-0.196;2022-09-03T05:38:28;99855.59;;;16.89;66.62
68145;BME280;55400;51.824;-0.196;2022-09-03T05:40:58;99848.19;;;16.93;66.54
68145;BME280;55400;51.824;-0.196;2022-09-03T05:43:26;99847.94;;;16.96;66.09
68145;BME280;55400;51.824;-0.196;2022-09-03T05:45:59;99855.66;;;16.99;66.22
68145;BME280;55400;51.824;-0.196;2022-09-03T05:48:27;99862.78;;;16.98;66.38
68145;BME280;55400;51.824;-0.196;2022-09-03T05:51:00;99860.13;;;16.98;66.30
68145;BME280;55400;51.824;-0.196;2022-09-03T05:53:27;99863.66;;;16.99;66.00
68145;BME280;55400;51.824;-0.196;2022-09-03T05:55:57;99860.84;;;17.00;66.59
68145;BME280;55400;51.824;-0.196;2022-09-03T05:58:29;99856.22;;;17.02;66.16
68145;BME280;55400;51.824;-0.196;2022-09-03T06:00:55;99857.91;;;17.03;65.89
68145;BME280;55400;51.824;-0.196;2022-09-03T06:03:22;99856.81;;;17.06;65.93
68145;BME280;55400;51.824;-0.196;2022-09-03T06:05:52;99858.50;;;17.07;66.07
68145;BME280;55400;51.824;-0.196;2022-09-03T06:08:20;99855.72;;;17.08;65.98
68145;BME280;55400;51.824;-0.196;2022-09-03T06:10:47;99858.25;;;17.10;66.28
68145;BME280;55400;51.824;-0.196;2022-09-03T06:13:13;99857.25;;;17.11;66.63
68145;BME280;55400;51.824;-0.196;2022-09-03T06:15:40;99868.50;;;17.15;66.11
68145;BME280;55400;51.824;-0.196;2022-09-03T06:18:07;99863.75;;;17.18;66.61
68145;BME280;55400;51.824;-0.196;2022-09-03T06:20:33;99857.19;;;17.22;66.57
68145;BME280;55400;51.824;-0.196;2022-09-03T06:23:02;99866.72;;;17.25;66.07
68145;BME280;55400;51.824;-0.196;2022-09-03T06:25:29;99863.78;;;17.28;65.85
68145;BME280;55400;51.824;-0.196;2022-09-03T06:27:57;99872.38;;;17.32;66.43
68145;BME280;55400;51.824;-0.196;2022-09-03T06:30:24;99871.25;;;17.34;66.54
68145;BME280;55400;51.824;-0.196;2022-09-03T06:32:52;99870.97;;;17.37;66.42
68145;BME280;55400;51.824;-0.196;2022-09-03T06:35:19;99878.72;;;17.40;66.25
68145;BME280;55400;51.824;-0.196;2022-09-03T06:37:46;99873.09;;;17.43;66.10
68145;BME280;55400;51.824;-0.196;2022-09-03T06:40:12;99864.00;;;17.46;66.27
68145;BME280;55400;51.824;-0.196;2022-09-03T06:42:39;99878.88;;;17.49;66.29
68145;BME280;55400;51.824;-0.196;2022-09-03T06:45:11;99881.28;;;17.52;66.16
68145;BME280;55400;51.824;-0.196;2022-09-03T06:47:37;99881.00;;;17.55;66.46
68145;BME280;55400;51.824;-0.196;2022-09-03T06:50:04;99876.41;;;17.57;66.16
68145;BME280;55400;51.824;-0.196;2022-09-03T06:52:31;99874.31;;;17.60;65.92
68145;BME280;55400;51.824;-0.196;2022-09-03T06:54:58;99874.03;;;17.63;66.11
68145;BME280;55400;51.824;-0.196;2022-09-03T06:57:24;99880.06;;;17.66;66.37
68145;BME280;55400;51.824;-0.196;2022-09-03T06:59:51;99884.41;;;17.67;66.04
68145;BME280;55400;51.824;-0.196;2022-09-03T07:02:19;99880.53;;;17.71;65.98
68145;BME280;55400;51.824;-0.196;2022-09-03T07:04:48;99882.06;;;17.73;65.93
68145;BME280;55400;51.824;-0.196;2022-09-03T07:07:15;99892.59;;;17.75;66.18
68145;BME280;55400;51.824;-0.196;2022-09-03T07:09:41;99884.59;;;17.75;66.93
68145;BME280;55400;51.824;-0.196;2022-09-03T07:12:13;99886.41;;;17.74;65.98
68145;BME280;55400;51.824;-0.196;2022-09-03T07:14:42;99892.59;;;17.75;66.70
68145;BME280;55400;51.824;-0.196;2022-09-03T07:17:08;99889.78;;;17.76;66.33
68145;BME280;55400;51.824;-0.196;2022-09-03T07:19:35;99893.03;;;17.80;65.81
68145;BME280;55400;51.824;-0.196;2022-09-03T07:22:01;99896.28;;;17.84;66.04
68145;BME280;55400;51.824;-0.196;2022-09-03T07:24:28;99903.91;;;17.88;65.90
68145;BME280;55400;51.824;-0.196;2022-09-03T07:26:55;99904.84;;;17.87;66.07
68145;BME280;55400;51.824;-0.196;2022-09-03T07:29:23;99906.28;;;17.91;65.43
68145;BME280;55400;51.824;-0.196;2022-09-03T07:31:50;99905.00;;;17.95;65.59
68145;BME280;55400;51.824;-0.196;2022-09-03T07:34:18;99907.53;;;17.97;65.77
68145;BME280;55400;51.824;-0.196;2022-09-03T07:36:45;99906.59;;;17.98;65.79
68145;BME280;55400;51.824;-0.196;2022-09-03T07:39:14;99914.44;;;17.99;66.15
68145;BME280;55400;51.824;-0.196;2022-09-03T07:41:41;99907.13;;;18.02;66.17
68145;BME280;55400;51.824;-0.196;2022-09-03T07:44:14;99905.75;;;18.07;65.61
68145;BME280;55400;51.824;-0.196;2022-09-03T07:46:45;99909.72;;;18.13;65.58
68145;BME280;55400;51.824;-0.196;2022-09-03T07:49:13;99909.31;;;18.17;66.00
68145;BME280;55400;51.824;-0.196;2022-09-03T07:51:40;99907.06;;;18.23;65.42
68145;BME280;55400;51.824;-0.196;2022-09-03T07:54:07;99901.59;;;18.24;65.82
68145;BME280;55400;51.824;-0.196;2022-09-03T07:56:37;99904.09;;;18.26;65.87
68145;BME280;55400;51.824;-0.196;2022-09-03T07:59:04;99900.31;;;18.28;65.59
68145;BME280;55400;51.824;-0.196;2022-09-03T08:01:31;99909.88;;;18.31;65.54
68145;BME280;55400;51.824;-0.196;2022-09-03T08:03:58;99914.78;;;18.35;65.62
68145;BME280;55400;51.824;-0.196;2022-09-03T08:06:26;99912.53;;;18.41;65.84
68145;BME280;55400;51.824;-0.196;2022-09-03T08:08:56;99913.25;;;18.43;65.38
68145;BME280;55400;51.824;-0.196;2022-09-03T08:11:30;99916.47;;;18.46;64.99
68145;BME280;55400;51.824;-0.196;2022-09-03T08:13:57;99911.69;;;18.50;65.42
68145;BME280;55400;51.824;-0.196;2022-09-03T08:16:29;99915.94;;;18.52;65.19
68145;BME280;55400;51.824;-0.196;2022-09-03T08:18:56;99912.84;;;18.57;65.34
68145;BME280;55400;51.824;-0.196;2022-09-03T08:21:22;99909.75;;;18.62;65.00
68145;BME280;55400;51.824;-0.196;2022-09-03T08:23:50;99917.47;;;18.65;65.30
68145;BME280;55400;51.824;-0.196;2022-09-03T08:26:18;99923.38;;;18.68;65.59
68145;BME280;55400;51.824;-0.196;2022-09-03T08:28:45;99923.78;;;18.74;64.75
68145;BME280;55400;51.824;-0.196;2022-09-03T08:31:13;99924.38;;;18.77;65.12
68145;BME280;55400;51.824;-0.196;2022-09-03T08:33:41;99930.94;;;18.83;64.94
68145;BME280;55400;51.824;-0.196;2022-09-03T08:36:15;99937.59;;;18.88;64.84
68145;BME280;55400;51.824;-0.196;2022-09-03T08:38:42;99944.06;;;18.96;64.67
68145;BME280;55400;51.824;-0.196;2022-09-03T08:44:03;99949.69;;;19.02;64.44
68145;BME280;55400;51.824;-0.196;2022-09-03T08:49:07;99936.16;;;19.14;63.82
68145;BME280;55400;51.824;-0.196;2022-09-03T08:51:36;99934.59;;;19.21;63.18
68145;BME280;55400;51.824;-0.196;2022-09-03T08:54:06;99939.22;;;19.29;63.07
68145;BME280;55400;51.824;-0.196;2022-09-03T08:56:35;99939.47;;;19.35;62.87
68145;BME280;55400;51.824;-0.196;2022-09-03T08:59:04;99938.06;;;19.41;62.60
68145;BME280;55400;51.824;-0.196;2022-09-03T09:04:38;99929.88;;;19.52;62.26
68145;BME280;55400;51.824;-0.196;2022-09-03T09:15:05;99946.69;;;19.72;61.72
68145;BME280;55400;51.824;-0.196;2022-09-03T09:22:39;99952.00;;;19.82;61.60
68145;BME280;55400;51.824;-0.196;2022-09-03T09:25:13;99950.03;;;19.84;61.89
68145;BME280;55400;51.824;-0.196;2022-09-03T09:28:02;99953.72;;;19.83;61.62
68145;BME280;55400;51.824;-0.196;2022-09-03T09:30:29;99952.84;;;19.83;61.72
68145;BME280;55400;51.824;-0.196;2022-09-03T09:32:56;99952.00;;;19.82;61.82
68145;BME280;55400;51.824;-0.196;2022-09-03T09:35:23;99952.69;;;19.84;61.72
68145;BME280;55400;51.824;-0.196;2022-09-03T09:37:54;99957.63;;;19.89;61.74
68145;BME280;55400;51.824;-0.196;2022-09-03T09:40:31;99947.00;;;19.97;62.01
68145;BME280;55400;51.824;-0.196;2022-09-03T09:43:06;99943.28;;;20.08;61.67
68145;BME280;55400;51.824;-0.196;2022-09-03T09:45:35;99937.19;;;20.16;61.58
68145;BME280;55400;51.824;-0.196;2022-09-03T09:48:05;99939.09;;;20.23;61.37
68145;BME280;55400;51.824;-0.196;2022-09-03T09:50:33;99938.81;;;20.26;60.95
68145;BME280;55400;51.824;-0.196;2022-09-03T09:53:00;99943.47;;;20.24;60.96
68145;BME280;55400;51.824;-0.196;2022-09-03T09:55:29;99937.97;;;20.26;61.22
68145;BME280;55400;51.824;-0.196;2022-09-03T09:58:04;99944.69;;;20.30;60.82
68145;BME280;55400;51.824;-0.196;2022-09-03T10:00:30;99944.69;;;20.30;60.75
68145;BME280;55400;51.824;-0.196;2022-09-03T10:03:00;99942.03;;;20.30;61.38
68145;BME280;55400;51.824;-0.196;2022-09-03T10:05:28;99937.69;;;20.29;61.06
68145;BME280;55400;51.824;-0.196;2022-09-03T10:08:00;99942.03;;;20.30;60.97
68145;BME280;55400;51.824;-0.196;2022-09-03T10:10:27;99934.53;;;20.34;61.21
68145;BME280;55400;51.824;-0.196;2022-09-03T10:12:58;99932.09;;;20.40;61.09
68145;BME280;55400;51.824;-0.196;2022-09-03T10:18:14;99926.75;;;20.58;60.90
68145;BME280;55400;51.824;-0.196;2022-09-03T10:20:48;99939.94;;;20.70;60.34
68145;BME280;55400;51.824;-0.196;2022-09-03T10:23:20;99950.03;;;20.76;59.41
68145;BME280;55400;51.824;-0.196;2022-09-03T10:28:35;99951.41;;;20.80;59.84
68145;BME280;55400;51.824;-0.196;2022-09-03T10:38:44;99941.91;;;20.85;59.67
68145;BME280;55400;51.824;-0.196;2022-09-03T10:44:00;99932.94;;;20.95;59.16
68145;BME280;55400;51.824;-0.196;2022-09-03T10:49:19;99937.38;;;21.04;58.41
68145;BME280;55400;51.824;-0.196;2022-09-03T10:52:05;99939.59;;;21.09;59.20
68145;BME280;55400;51.824;-0.196;2022-09-03T10:57:14;99947.63;;;21.09;58.88
68145;BME280;55400;51.824;-0.196;2022-09-03T10:59:53;99940.13;;;21.12;58.81
68145;BME280;55400;51.824;-0.196;2022-09-03T11:05:05;99945.16;;;21.15;58.76
68145;BME280;55400;51.824;-0.196;2022-09-03T11:07:34;99947.53;;;21.18;58.98
68145;BME280;55400;51.824;-0.196;2022-09-03T11:10:11;99950.06;;;21.20;58.86
68145;BME280;55400;51.824;-0.196;2022-09-03T11:12:47;99946.38;;;21.21;58.25
68145;BME280;55400;51.824;-0.196;2022-09-03T11:18:03;99945.22;;;21.24;58.53
68145;BME280;55400;51.824;-0.196;2022-09-03T11:20:33;99946.75;;;21.26;58.84
68145;BME280;55400;51.824;-0.196;2022-09-03T11:23:00;99945.44;;;21.30;58.23
68145;BME280;55400;51.824;-0.196;2022-09-03T11:25:36;99945.97;;;21.34;58.26
68145;BME280;55400;51.824;-0.196;2022-09-03T11:30:47;99943.31;;;21.42;59.02
68145;BME280;55400;51.824;-0.196;2022-09-03T11:33:17;99940.72;;;21.50;58.54
68145;BME280;55400;51.824;-0.196;2022-09-03T11:35:45;99939.91;;;21.58;57.97
68145;BME280;55400;51.824;-0.196;2022-09-03T11:40:59;99937.63;;;21.63;58.51
68145;BME280;55400;51.824;-0.196;2022-09-03T11:43:31;99940.50;;;21.70;58.29
68145;BME280;55400;51.824;-0.196;2022-09-03T11:46:02;99933.44;;;21.69;57.49
68145;BME280;55400;51.824;-0.196;2022-09-03T11:48:35;99931.06;;;21.66;57.77
68145;BME280;55400;51.824;-0.196;2022-09-03T11:51:03;99925.72;;;21.66;57.69
68145;BME280;55400;51.824;-0.196;2022-09-03T11:53:34;99928.06;;;21.69;58.40
68145;BME280;55400;51.824;-0.196;2022-09-03T11:58:32;99929.16;;;21.84;57.52
68145;BME280;55400;51.824;-0.196;2022-09-03T12:01:00;99924.81;;;21.91;56.95
68145;BME280;55400;51.824;-0.196;2022-09-03T12:03:29;99920.63;;;21.97;56.92
68145;BME280;55400;51.824;-0.196;2022-09-03T12:14:32;99928.84;;;21.96;57.24
68145;BME280;55400;51.824;-0.196;2022-09-03T12:17:05;99927.84;;;21.97;56.96
68145;BME280;55400;51.824;-0.196;2022-09-03T12:19:40;99925.69;;;22.00;57.09
68145;BME280;55400;51.824;-0.196;2022-09-03T12:22:12;99925.34;;;22.03;57.54
68145;BME280;55400;51.824;-0.196;2022-09-03T12:24:39;99926.88;;;22.06;57.05
68145;BME280;55400;51.824;-0.196;2022-09-03T12:27:09;99923.03;;;22.08;56.78
68145;BME280;55400;51.824;-0.196;2022-09-03T12:29:38;99919.50;;;22.08;56.87
68145;BME280;55400;51.824;-0.196;2022-09-03T12:32:07;99933.78;;;22.08;56.43
68145;BME280;55400;51.824;-0.196;2022-09-03T12:34:34;99929.25;;;22.09;56.92
68145;BME280;55400;51.824;-0.196;2022-09-03T12:37:02;99930.94;;;22.10;56.91
68145;BME280;55400;51.824;-0.196;2022-09-03T12:39:30;99930.59;;;22.13;56.20
68145;BME280;55400;51.824;-0.196;2022-09-03T12:42:19;99926.41;;;22.19;56.31
68145;BME280;55400;51.824;-0.196;2022-09-03T12:44:47;99926.63;;;22.25;56.70
68145;BME280;55400;51.824;-0.196;2022-09-03T12:47:15;99926.47;;;22.27;56.33
68145;BME280;55400;51.824;-0.196;2022-09-03T12:50:07;99934.50;;;22.27;56.68
68145;BME280;55400;51.824;-0.196;2022-09-03T12:52:55;99930.13;;;22.26;56.57
68145;BME280;55400;51.824;-0.196;2022-09-03T12:58:22;99933.81;;;22.25;56.09
68145;BME280;55400;51.824;-0.196;2022-09-03T13:06:01;99933.31;;;22.29;56.85
68145;BME280;55400;51.824;-0.196;2022-09-03T13:08:31;99924.44;;;22.29;57.17
68145;BME280;55400;51.824;-0.196;2022-09-03T13:11:00;99930.13;;;22.26;56.82
68145;BME280;55400;51.824;-0.196;2022-09-03T13:13:32;99929.47;;;22.24;57.28
68145;BME280;55400;51.824;-0.196;2022-09-03T13:29:41;99938.78;;;22.03;57.40
68145;BME280;55400;51.824;-0.196;2022-09-03T13:34:53;99991.03;;;21.83;58.50
68145;BME280;55400;51.824;-0.196;2022-09-03T13:40:18;99990.69;;;21.07;62.23
68145;BME280;55400;51.824;-0.196;2022-09-03T13:42:54;99989.94;;;20.79;63.49
68145;BME280;55400;51.824;-0.196;2022-09-03T13:45:28;99991.72;;;20.60;64.60
68145;BME280;55400;51.824;-0.196;2022-09-03T13:47:58;99983.91;;;20.49;65.14
68145;BME280;55400;51.824;-0.196;2022-09-03T13:50:53;99979.47;;;20.40;65.57
68145;BME280;55400;51.824;-0.196;2022-09-03T13:59:00;99974.25;;;20.38;65.92
68145;BME280;55400;51.824;-0.196;2022-09-03T14:01:57;99980.59;;;20.37;66.68
68145;BME280;55400;51.824;-0.196;2022-09-03T14:05:00;99984.97;;;20.38;67.04
68145;BME280;55400;51.824;-0.196;2022-09-03T14:12:45;99976.03;;;20.47;67.25
68145;BME280;55400;51.824;-0.196;2022-09-03T14:15:26;99975.28;;;20.55;67.74
68145;BME280;55400;51.824;-0.196;2022-09-03T14:18:36;99983.25;;;20.65;68.43
68145;BME280;55400;51.824;-0.196;2022-09-03T14:21:13;99984.31;;;20.72;67.46
68145;BME280;55400;51.824;-0.196;2022-09-03T14:24:06;99982.03;;;20.77;67.62
68145;BME280;55400;51.824;-0.196;2022-09-03T14:26:36;99986.19;;;20.90;67.45
68145;BME280;55400;51.824;-0.196;2022-09-03T14:37:53;99976.97;;;21.10;68.55
68145;BME280;55400;51.824;-0.196;2022-09-03T14:40:41;99980.16;;;21.14;68.54
68145;BME280;55400;51.824;-0.196;2022-09-03T14:43:28;99985.53;;;21.14;68.35
68145;BME280;55400;51.824;-0.196;2022-09-03T14:54:43;99979.38;;;21.39;68.10
68145;BME280;55400;51.824;-0.196;2022-09-03T15:02:47;99975.25;;;21.53;68.13
68145;BME280;55400;51.824;-0.196;2022-09-03T15:05:28;99972.66;;;21.62;67.58
68145;BME280;55400;51.824;-0.196;2022-09-03T15:10:47;99974.88;;;21.66;67.71
68145;BME280;55400;51.824;-0.196;2022-09-03T15:13:23;99955.22;;;21.66;67.55
68145;BME280;55400;51.824;-0.196;2022-09-03T15:16:04;99969.19;;;21.69;67.40
68145;BME280;55400;51.824;-0.196;2022-09-03T15:24:26;99969.41;;;21.84;67.16
68145;BME280;55400;51.824;-0.196;2022-09-03T15:29:56;99971.00;;;22.03;67.28
68145;BME280;55400;51.824;-0.196;2022-09-03T15:32:56;99970.34;;;22.09;66.93
68145;BME280;55400;51.824;-0.196;2022-09-03T15:38:19;99970.50;;;22.08;66.09
68145;BME280;55400;51.824;-0.196;2022-09-03T15:40:48;99966.81;;;22.09;66.25
68145;BME280;55400;51.824;-0.196;2022-09-03T15:43:30;99969.69;;;22.07;66.02
68145;BME280;55400;51.824;-0.196;2022-09-03T15:46:11;99981.41;;;22.06;66.49
68145;BME280;55400;51.824;-0.196;2022-09-03T15:48:59;99971.84;;;22.04;66.19
68145;BME280;55400;51.824;-0.196;2022-09-03T15:54:47;99971.22;;;22.10;65.82
68145;BME280;55400;51.824;-0.196;2022-09-03T16:00:13;99983.34;;;22.22;65.80
68145;BME280;55400;51.824;-0.196;2022-09-03T16:05:40;99968.22;;;22.21;65.26
68145;BME280;55400;51.824;-0.196;2022-09-03T16:08:57;99982.63;;;22.20;65.68
68145;BME280;55400;51.824;-0.196;2022-09-03T16:11:36;99980.97;;;22.19;65.28
68145;BME280;55400;51.824;-0.196;2022-09-03T16:14:33;99976.75;;;22.17;65.49
68145;BME280;55400;51.824;-0.196;2022-09-03T16:17:25;99984.50;;;22.20;64.94
68145;BME280;55400;51.824;-0.196;2022-09-03T16:20:03;99977.81;;;22.24;64.67
68145;BME280;55400;51.824;-0.196;2022-09-03T16:22:47;99979.13;;;22.28;64.83
68145;BME280;55400;51.824;-0.196;2022-09-03T16:25:56;99991.13;;;22.42;63.81
68145;BME280;55400;51.824;-0.196;2022-09-03T16:29:11;99994.31;;;22.45;63.14
68145;BME280;55400;51.824;-0.196;2022-09-03T16:40:43;100003.03;;;22.39;62.45
68145;BME280;55400;51.824;-0.196;2022-09-03T16:43:47;100003.63;;;22.25;62.03
68145;BME280;55400;51.824;-0.196;2022-09-03T16:46:39;100010.84;;;22.16;61.78
68145;BME280;55400;51.824;-0.196;2022-09-03T16:53:14;100012.69;;;21.89;61.13
68145;BME280;55400;51.824;-0.196;2022-09-03T17:05:00;100017.41;;;21.61;62.39
68145;BME280;55400;51.824;-0.196;2022-09-03T17:16:29;100035.69;;;21.39;62.17
68145;BME280;55400;51.824;-0.196;2022-09-03T17:19:38;100039.97;;;21.32;62.50